createdAt,value
2024-02-26T00:01:07.150Z,43.93
2024-02-26T00:03:07.034Z,43.95
2024-02-26T00:05:07.026Z,44.21
2024-02-26T00:07:07.071Z,44.21
2024-02-26T00:09:07.054Z,44.08
2024-02-26T00:11:07.119Z,43.98
2024-02-26T00:13:07.057Z,44.02
2024-02-26T00:15:07.034Z,44.19
2024-02-26T00:18:07.208Z,44.50
2024-02-26T00:20:07.034Z,44.50
2024-02-26T00:24:07.087Z,44.72
2024-02-26T00:28:07.058Z,44.55
2024-02-26T00:31:10.001Z,44.76
2024-02-26T00:33:07.119Z,44.73
2024-02-26T00:36:07.094Z,44.68
2024-02-26T00:38:07.074Z,44.66
2024-02-26T00:42:07.211Z,44.19
2024-02-26T00:44:07.118Z,43.78
2024-02-26T00:46:07.094Z,43.85
2024-02-26T00:49:07.211Z,43.79
2024-02-26T00:51:07.217Z,43.64
2024-02-26T00:53:07.109Z,43.66
2024-02-26T00:55:07.170Z,43.78
2024-02-26T00:57:07.183Z,43.62
2024-02-26T00:59:07.129Z,43.60
2024-02-26T01:01:07.149Z,43.75
2024-02-26T01:03:07.319Z,43.56
2024-02-26T01:06:07.236Z,43.87
2024-02-26T01:09:07.238Z,43.91
2024-02-26T01:11:07.237Z,44.55
2024-02-26T01:13:07.188Z,44.89
2024-02-26T01:16:07.205Z,45.09
2024-02-26T01:18:07.300Z,45.11
2024-02-26T01:20:07.174Z,45.29
2024-02-26T01:22:07.182Z,45.33
2024-02-26T01:24:07.322Z,45.77
2024-02-26T01:26:07.230Z,45.69
2024-02-26T01:28:07.194Z,45.68
2024-02-26T01:30:07.254Z,45.79
2024-02-26T01:32:07.213Z,45.78
2024-02-26T01:34:07.324Z,45.85
2024-02-26T01:36:07.312Z,45.97
2024-02-26T01:38:07.227Z,45.94
2024-02-26T01:40:07.211Z,45.91
2024-02-26T01:42:07.290Z,45.91
2024-02-26T01:44:07.280Z,45.89
2024-02-26T01:46:07.227Z,46.12
2024-02-26T01:48:07.352Z,46.27
2024-02-26T01:50:07.280Z,46.08
2024-02-26T01:52:07.317Z,46.23
2024-02-26T01:54:07.285Z,46.31
2024-02-26T01:56:07.272Z,46.21
2024-02-26T01:58:07.275Z,46.42
2024-02-26T02:00:07.346Z,46.39
2024-02-26T02:02:07.300Z,46.54
2024-02-26T02:04:07.348Z,46.58
2024-02-26T02:07:07.576Z,46.43
2024-02-26T02:09:07.364Z,46.61
2024-02-26T02:11:07.302Z,46.68
2024-02-26T02:15:07.411Z,46.91
2024-02-26T02:17:07.317Z,46.96
2024-02-26T02:19:07.361Z,46.92
2024-02-26T02:22:11.338Z,46.73
2024-02-26T02:25:07.373Z,46.86
2024-02-26T02:27:07.392Z,46.94
2024-02-26T02:29:07.317Z,47.14
2024-02-26T02:31:07.393Z,46.91
2024-02-26T02:34:07.391Z,47.32
2024-02-26T02:36:07.428Z,47.12
2024-02-26T02:38:07.402Z,46.98
2024-02-26T02:40:07.365Z,46.96
2024-02-26T02:42:07.418Z,47.22
2024-02-26T02:44:07.375Z,47.46
2024-02-26T02:47:07.384Z,47.65
2024-02-26T02:51:07.474Z,48.17
2024-02-26T02:53:07.412Z,48.32
2024-02-26T02:56:07.433Z,48.42
2024-02-26T02:59:11.834Z,48.55
2024-02-26T03:01:07.475Z,48.31
2024-02-26T03:03:07.549Z,48.54
2024-02-26T03:05:07.457Z,49.39
2024-02-26T03:07:07.533Z,50.37
2024-02-26T03:09:07.508Z,50.54
2024-02-26T03:11:07.504Z,50.80
2024-02-26T03:13:07.449Z,50.86
2024-02-26T03:15:07.548Z,50.91
2024-02-26T03:17:07.480Z,50.67
2024-02-26T03:19:07.608Z,50.85
2024-02-26T03:21:07.581Z,50.78
2024-02-26T03:23:07.508Z,50.98
2024-02-26T03:26:07.495Z,50.82
2024-02-26T03:28:07.532Z,50.62
2024-02-26T03:30:07.574Z,50.69
2024-02-26T03:32:07.487Z,50.67
2024-02-26T03:34:07.753Z,51.10
2024-02-26T03:36:12.245Z,51.28
2024-02-26T03:38:07.556Z,51.20
2024-02-26T03:40:07.529Z,51.14
2024-02-26T03:42:07.571Z,50.98
2024-02-26T03:44:07.544Z,50.77
2024-02-26T03:46:07.553Z,50.66
2024-02-26T03:49:07.662Z,50.66
2024-02-26T03:51:07.620Z,50.97
2024-02-26T03:53:08.260Z,51.20
2024-02-26T03:55:07.540Z,51.09
2024-02-26T03:57:07.598Z,50.98
2024-02-26T03:59:07.604Z,50.91
2024-02-26T04:01:07.676Z,50.75
2024-02-26T04:03:07.618Z,50.69
2024-02-26T04:05:07.559Z,50.89
2024-02-26T04:07:07.885Z,50.90
2024-02-26T04:09:07.701Z,50.90
2024-02-26T04:11:07.659Z,50.86
2024-02-26T04:13:12.608Z,50.98
2024-02-26T04:15:07.659Z,51.11
2024-02-26T04:20:07.605Z,51.07
2024-02-26T04:22:07.660Z,50.77
2024-02-26T04:24:07.671Z,50.67
2024-02-26T04:26:07.638Z,50.62
2024-02-26T04:28:07.645Z,50.77
2024-02-26T04:30:07.742Z,50.80
2024-02-26T04:32:07.685Z,51.03
2024-02-26T04:34:07.762Z,51.14
2024-02-26T04:36:07.702Z,51.25
2024-02-26T04:38:07.692Z,51.31
2024-02-26T04:40:07.707Z,51.16
2024-02-26T04:42:07.727Z,51.16
2024-02-26T04:46:07.684Z,51.18
2024-02-26T04:48:07.824Z,50.92
2024-02-26T04:51:07.712Z,51.12
2024-02-26T04:55:07.729Z,51.35
2024-02-26T04:57:07.731Z,51.55
2024-02-26T04:59:07.707Z,51.77
2024-02-26T05:02:07.749Z,51.87
2024-02-26T05:04:07.828Z,52.54
2024-02-26T05:06:07.863Z,52.43
2024-02-26T05:08:07.726Z,52.69
2024-02-26T05:10:07.778Z,53.13
2024-02-26T05:12:07.753Z,53.19
2024-02-26T05:14:07.773Z,53.43
2024-02-26T05:16:07.795Z,53.49
2024-02-26T05:18:07.828Z,53.56
2024-02-26T05:20:07.828Z,53.85
2024-02-26T05:22:07.773Z,54.37
2024-02-26T05:25:07.776Z,54.58
2024-02-26T05:27:07.848Z,54.72
2024-02-26T05:29:07.822Z,54.77
2024-02-26T05:32:07.821Z,54.64
2024-02-26T05:35:07.834Z,54.93
2024-02-26T05:37:07.847Z,54.84
2024-02-26T05:39:08.780Z,54.83
2024-02-26T05:41:07.802Z,54.68
2024-02-26T05:46:07.830Z,54.97
2024-02-26T05:48:07.932Z,54.87
2024-02-26T05:50:07.866Z,54.88
2024-02-26T05:52:07.875Z,54.97
2024-02-26T05:55:07.883Z,54.91
2024-02-26T05:57:07.929Z,55.17
2024-02-26T06:00:07.953Z,55.26
2024-02-26T06:03:07.911Z,55.03
2024-02-26T06:05:07.899Z,56.28
2024-02-26T06:07:07.959Z,56.94
2024-02-26T06:09:07.920Z,58.10
2024-02-26T06:11:08.161Z,58.41
2024-02-26T06:13:07.935Z,58.15
2024-02-26T06:15:07.918Z,57.87
2024-02-26T06:17:07.893Z,57.90
2024-02-26T06:19:09.799Z,58.30
2024-02-26T06:21:08.000Z,58.92
2024-02-26T06:23:07.910Z,58.92
2024-02-26T06:25:07.935Z,58.85
2024-02-26T06:27:08.014Z,58.78
2024-02-26T06:29:07.990Z,58.60
2024-02-26T06:31:07.922Z,58.56
2024-02-26T06:34:08.088Z,58.76
2024-02-26T06:36:07.966Z,58.29
2024-02-26T06:38:09.386Z,58.45
2024-02-26T06:40:08.176Z,58.12
2024-02-26T06:42:08.030Z,57.70
2024-02-26T06:44:07.957Z,57.27
2024-02-26T06:46:08.006Z,55.99
2024-02-26T06:48:08.148Z,55.61
2024-02-26T06:50:08.046Z,55.23
2024-02-26T06:52:08.010Z,54.93
2024-02-26T06:54:08.011Z,54.87
2024-02-26T06:56:07.998Z,54.47
2024-02-26T06:58:08.019Z,54.17
2024-02-26T07:00:08.307Z,54.16
2024-02-26T07:03:08.058Z,54.03
2024-02-26T07:05:08.039Z,53.89
2024-02-26T07:07:08.172Z,53.68
2024-02-26T07:09:08.058Z,53.51
2024-02-26T07:13:08.061Z,53.73
2024-02-26T07:15:09.927Z,53.49
2024-02-26T07:17:08.042Z,53.26
2024-02-26T07:19:08.184Z,52.89
2024-02-26T07:21:08.174Z,52.86
2024-02-26T07:23:08.043Z,52.78
2024-02-26T07:25:08.082Z,52.34
2024-02-26T07:27:08.099Z,52.19
2024-02-26T07:29:08.097Z,53.32
2024-02-26T07:31:08.118Z,51.25
2024-02-26T07:33:08.191Z,51.15
2024-02-26T07:35:08.181Z,49.06
2024-02-26T07:37:08.144Z,41.08
2024-02-26T07:39:08.194Z,35.96
2024-02-26T07:41:08.112Z,34.24
2024-02-26T07:43:08.123Z,34.34
2024-02-26T07:45:08.182Z,35.77
2024-02-26T07:47:08.150Z,33.83
2024-02-26T07:49:08.208Z,32.15
2024-02-26T07:51:08.160Z,30.74
2024-02-26T07:53:08.146Z,29.61
2024-02-26T07:55:08.288Z,28.63
2024-02-26T07:57:08.215Z,26.76
2024-02-26T07:59:08.147Z,26.22
2024-02-26T08:01:08.179Z,24.63
2024-02-26T08:03:08.272Z,22.71
2024-02-26T08:05:08.221Z,22.20
2024-02-26T08:07:08.242Z,23.04
2024-02-26T08:09:08.194Z,24.91
2024-02-26T08:11:08.202Z,26.73
2024-02-26T08:13:08.244Z,28.05
2024-02-26T08:15:08.268Z,28.35
2024-02-26T08:17:08.187Z,27.33
2024-02-26T08:19:08.350Z,24.92
2024-02-26T08:21:08.270Z,22.01
2024-02-26T08:23:08.245Z,20.70
2024-02-26T08:25:08.239Z,20.71
2024-02-26T08:27:08.234Z,21.81
2024-02-26T08:29:10.824Z,24.21
2024-02-26T08:31:08.281Z,25.37
2024-02-26T08:33:08.376Z,25.49
2024-02-26T08:35:08.276Z,24.50
2024-02-26T08:37:08.241Z,22.50
2024-02-26T08:39:08.372Z,22.12
2024-02-26T08:41:08.303Z,23.89
2024-02-26T08:43:08.291Z,25.05
2024-02-26T08:45:08.308Z,29.01
2024-02-26T08:47:08.300Z,31.10
2024-02-26T08:49:08.458Z,32.89
2024-02-26T08:51:08.307Z,33.44
2024-02-26T08:53:08.284Z,34.89
2024-02-26T08:55:08.322Z,36.64
2024-02-26T08:57:08.412Z,37.56
2024-02-26T08:59:08.305Z,37.93
2024-02-26T09:01:08.429Z,38.13
2024-02-26T09:03:08.368Z,39.53
2024-02-26T09:05:08.432Z,40.00
2024-02-26T09:07:08.424Z,40.39
2024-02-26T09:09:08.404Z,40.79
2024-02-26T09:11:08.330Z,40.55
2024-02-26T09:13:08.317Z,40.97
2024-02-26T09:15:08.435Z,41.52
2024-02-26T09:17:08.365Z,42.27
2024-02-26T09:19:08.568Z,42.28
2024-02-26T09:21:08.415Z,42.86
2024-02-26T09:23:08.410Z,42.78
2024-02-26T09:25:08.428Z,42.73
2024-02-26T09:27:08.441Z,42.95
2024-02-26T09:31:08.402Z,42.98
2024-02-26T09:33:08.498Z,43.18
2024-02-26T09:36:08.439Z,43.15
2024-02-26T09:39:08.495Z,43.07
2024-02-26T09:41:08.435Z,43.21
2024-02-26T09:43:11.608Z,43.08
2024-02-26T09:45:08.459Z,42.78
2024-02-26T09:47:08.421Z,42.48
2024-02-26T09:49:08.498Z,42.70
2024-02-26T09:51:08.520Z,42.76
2024-02-26T09:53:08.482Z,41.83
2024-02-26T09:55:08.443Z,41.84
2024-02-26T09:57:08.540Z,42.08
2024-02-26T09:59:08.495Z,42.19
2024-02-26T10:01:08.529Z,42.38
2024-02-26T10:03:08.534Z,42.48
2024-02-26T10:05:08.522Z,42.72
2024-02-26T10:07:08.633Z,42.92
2024-02-26T10:09:08.545Z,43.14
2024-02-26T10:11:08.468Z,43.07
2024-02-26T10:13:08.476Z,43.43
2024-02-26T10:15:08.528Z,43.84
2024-02-26T10:17:08.545Z,43.79
2024-02-26T10:19:08.623Z,43.83
2024-02-26T10:21:08.547Z,44.06
2024-02-26T10:24:08.534Z,44.10
2024-02-26T10:26:08.534Z,44.06
2024-02-26T10:28:08.538Z,44.63
2024-02-26T10:30:08.647Z,44.33
2024-02-26T10:32:08.580Z,44.54
2024-02-26T10:34:08.666Z,44.85
2024-02-26T10:36:08.657Z,44.82
2024-02-26T10:38:08.624Z,44.87
2024-02-26T10:40:08.585Z,44.95
2024-02-26T10:43:08.601Z,44.81
2024-02-26T10:45:08.627Z,44.80
2024-02-26T10:47:08.589Z,44.70
2024-02-26T10:49:08.686Z,44.56
2024-02-26T10:51:08.642Z,44.28
2024-02-26T10:53:08.632Z,44.00
2024-02-26T10:55:08.987Z,43.99
2024-02-26T10:57:12.754Z,44.01
2024-02-26T10:59:08.641Z,43.86
2024-02-26T11:02:08.636Z,43.69
2024-02-26T11:04:08.694Z,43.73
2024-02-26T11:06:08.764Z,43.92
2024-02-26T11:08:08.623Z,43.92
2024-02-26T11:10:08.631Z,44.07
2024-02-26T11:12:08.720Z,44.14
2024-02-26T11:14:08.678Z,44.18
2024-02-26T11:16:08.643Z,44.32
2024-02-26T11:19:08.808Z,44.07
2024-02-26T11:22:18.470Z,44.21
2024-02-26T11:23:08.648Z,44.21
2024-02-26T11:25:08.739Z,44.16
2024-02-26T11:28:08.684Z,43.77
2024-02-26T11:30:08.741Z,43.51
2024-02-26T11:32:08.748Z,43.19
2024-02-26T11:34:13.232Z,43.35
2024-02-26T11:36:08.730Z,43.22
2024-02-26T11:39:08.704Z,43.12
2024-02-26T11:42:08.844Z,43.34
2024-02-26T11:44:08.727Z,43.03
2024-02-26T11:47:08.786Z,42.25
2024-02-26T11:49:08.815Z,42.33
2024-02-26T11:51:08.765Z,42.42
2024-02-26T11:53:08.774Z,41.93
2024-02-26T11:55:08.782Z,42.25
2024-02-26T11:57:08.809Z,41.93
2024-02-26T11:58:08.783Z,42.17
2024-02-26T12:00:08.976Z,41.67
2024-02-26T12:02:08.770Z,41.81
2024-02-26T12:03:08.877Z,41.79
2024-02-26T12:05:08.847Z,41.34
2024-02-26T12:07:08.783Z,40.94
2024-02-26T12:09:08.852Z,41.35
2024-02-26T12:11:13.495Z,41.21
2024-02-26T12:13:08.826Z,41.15
2024-02-26T12:16:08.829Z,41.02
2024-02-26T12:18:09.106Z,40.69
2024-02-26T12:20:08.882Z,41.14
2024-02-26T12:22:08.808Z,41.41
2024-02-26T12:24:08.875Z,41.17
2024-02-26T12:26:10.785Z,41.16
2024-02-26T12:28:08.834Z,40.86
2024-02-26T12:30:08.907Z,41.53
2024-02-26T12:32:08.899Z,41.60
2024-02-26T12:34:08.921Z,41.73
2024-02-26T12:36:08.983Z,42.00
2024-02-26T12:38:08.861Z,41.92
2024-02-26T12:40:08.863Z,42.06
2024-02-26T12:42:08.930Z,41.53
2024-02-26T12:44:08.904Z,41.03
2024-02-26T12:46:09.349Z,40.75
2024-02-26T12:48:14.081Z,40.66
2024-02-26T12:50:09.588Z,40.09
2024-02-26T12:52:08.920Z,39.92
2024-02-26T12:54:08.973Z,40.40
2024-02-26T12:56:08.964Z,40.19
2024-02-26T12:58:08.894Z,40.17
2024-02-26T13:00:08.978Z,40.32
2024-02-26T13:02:09.008Z,40.07
2024-02-26T13:04:08.964Z,39.42
2024-02-26T13:06:09.054Z,39.34
2024-02-26T13:08:09.718Z,39.97
2024-02-26T13:10:08.976Z,40.30
2024-02-26T13:12:09.008Z,40.40
2024-02-26T13:14:09.202Z,39.97
2024-02-26T13:16:09.028Z,39.90
2024-02-26T13:18:09.074Z,39.79
2024-02-26T13:20:08.980Z,39.63
2024-02-26T13:22:09.253Z,39.94
2024-02-26T13:24:09.021Z,40.03
2024-02-26T13:27:08.984Z,39.47
2024-02-26T13:29:08.979Z,39.56
2024-02-26T13:31:09.012Z,39.84
2024-02-26T13:33:09.115Z,39.67
2024-02-26T13:36:09.151Z,39.63
2024-02-26T13:39:09.057Z,39.61
2024-02-26T13:41:09.038Z,39.61
2024-02-26T13:44:09.068Z,39.33
2024-02-26T13:47:09.030Z,39.70
2024-02-26T13:49:09.183Z,39.49
2024-02-26T13:51:09.116Z,39.59
2024-02-26T13:53:09.186Z,39.64
2024-02-26T13:55:09.039Z,40.18
2024-02-26T13:57:09.092Z,40.24
2024-02-26T13:59:09.697Z,40.18
2024-02-26T14:01:09.134Z,40.24
2024-02-26T14:03:09.183Z,40.63
2024-02-26T14:05:09.089Z,40.23
2024-02-26T14:07:09.277Z,40.17
2024-02-26T14:09:09.189Z,40.04
2024-02-26T14:11:09.158Z,40.64
2024-02-26T14:13:09.103Z,40.83
2024-02-26T14:15:10.192Z,41.17
2024-02-26T14:17:09.143Z,40.62
2024-02-26T14:19:10.031Z,40.88
2024-02-26T14:21:09.182Z,40.58
2024-02-26T14:23:09.124Z,40.54
2024-02-26T14:25:09.177Z,40.16
2024-02-26T14:27:09.200Z,40.31
2024-02-26T14:29:09.143Z,40.24
2024-02-26T14:31:09.169Z,40.22
2024-02-26T14:34:09.293Z,39.73
2024-02-26T14:37:09.142Z,39.60
2024-02-26T14:39:09.207Z,40.02
2024-02-26T14:41:09.184Z,39.97
2024-02-26T14:43:09.190Z,39.66
2024-02-26T14:45:09.267Z,39.60
2024-02-26T14:47:09.165Z,39.90
2024-02-26T14:53:09.232Z,39.53
2024-02-26T14:55:09.206Z,39.67
2024-02-26T14:58:09.226Z,39.69
2024-02-26T15:00:09.283Z,39.98
2024-02-26T15:02:09.212Z,39.79
2024-02-26T15:04:09.352Z,39.81
2024-02-26T15:06:09.344Z,39.94
2024-02-26T15:08:09.221Z,39.93
2024-02-26T15:10:09.229Z,40.07
2024-02-26T15:12:09.346Z,40.10
2024-02-26T15:14:09.286Z,40.25
2024-02-26T15:16:09.293Z,40.46
2024-02-26T15:18:09.362Z,40.49
2024-02-26T15:20:09.568Z,40.58
2024-02-26T15:22:09.254Z,40.47
2024-02-26T15:24:09.415Z,40.04
2024-02-26T15:28:09.274Z,40.48
2024-02-26T15:30:09.323Z,40.10
2024-02-26T15:32:09.298Z,40.00
2024-02-26T15:34:09.646Z,40.54
2024-02-26T15:36:09.369Z,40.71
2024-02-26T15:38:09.300Z,40.63
2024-02-26T15:40:09.304Z,40.50
2024-02-26T15:42:09.392Z,40.33
2024-02-26T15:45:09.340Z,40.02
2024-02-26T15:52:09.406Z,39.63
2024-02-26T15:54:09.459Z,40.06
2024-02-26T15:56:09.350Z,40.20
2024-02-26T15:58:09.358Z,40.37
2024-02-26T16:00:09.407Z,40.17
2024-02-26T16:02:09.451Z,40.34
2024-02-26T16:04:09.407Z,40.29
2024-02-26T16:07:09.498Z,40.15
2024-02-26T16:09:09.437Z,40.38
2024-02-26T16:11:09.451Z,41.05
2024-02-26T16:13:09.422Z,41.48
2024-02-26T16:15:09.415Z,41.51
2024-02-26T16:17:09.415Z,41.66
2024-02-26T16:18:09.711Z,41.06
2024-02-26T16:21:09.448Z,41.20
2024-02-26T16:23:09.453Z,40.98
2024-02-26T16:25:09.560Z,41.04
2024-02-26T16:28:09.489Z,41.05
2024-02-26T16:31:09.473Z,41.20
2024-02-26T16:33:09.572Z,41.45
2024-02-26T16:35:09.486Z,41.29
2024-02-26T16:37:09.473Z,41.73
2024-02-26T16:39:09.476Z,42.08
2024-02-26T16:41:09.490Z,41.73
2024-02-26T16:43:09.504Z,41.47
2024-02-26T16:45:09.574Z,41.70
2024-02-26T16:47:09.476Z,41.64
2024-02-26T16:49:09.705Z,42.03
2024-02-26T16:51:09.516Z,42.68
2024-02-26T16:53:09.485Z,43.14
2024-02-26T16:55:09.501Z,43.66
2024-02-26T16:57:09.553Z,43.56
2024-02-26T16:59:09.544Z,43.12
2024-02-26T17:01:09.541Z,42.94
2024-02-26T17:03:09.582Z,42.98
2024-02-26T17:05:09.608Z,43.33
2024-02-26T17:07:09.551Z,43.25
2024-02-26T17:09:09.696Z,42.91
2024-02-26T17:11:09.555Z,42.47
2024-02-26T17:13:09.559Z,41.99
2024-02-26T17:15:09.632Z,42.25
2024-02-26T17:17:09.590Z,42.00
2024-02-26T17:19:09.667Z,41.78
2024-02-26T17:21:09.635Z,41.70
2024-02-26T17:24:09.666Z,41.93
2024-02-26T17:26:09.597Z,42.35
2024-02-26T17:29:09.592Z,41.94
2024-02-26T17:31:09.580Z,41.76
2024-02-26T17:33:09.763Z,42.14
2024-02-26T17:35:09.697Z,42.79
2024-02-26T17:37:09.636Z,43.25
2024-02-26T17:39:09.608Z,43.47
2024-02-26T17:42:09.627Z,44.02
2024-02-26T17:45:09.698Z,43.71
2024-02-26T17:48:09.882Z,43.81
2024-02-26T17:50:09.664Z,43.66
2024-02-26T17:52:09.645Z,43.88
2024-02-26T17:54:09.686Z,43.67
2024-02-26T17:56:09.673Z,43.73
2024-02-26T17:58:09.694Z,43.78
2024-02-26T18:01:09.761Z,44.25
2024-02-26T18:03:09.860Z,44.33
2024-02-26T18:05:09.680Z,44.16
2024-02-26T18:07:09.775Z,44.37
2024-02-26T18:09:09.751Z,44.48
2024-02-26T18:11:09.832Z,44.31
2024-02-26T18:13:09.705Z,44.64
2024-02-26T18:15:09.727Z,44.88
2024-02-26T18:17:09.726Z,44.49
2024-02-26T18:19:10.014Z,45.12
2024-02-26T18:23:09.723Z,45.18
2024-02-26T18:26:09.721Z,45.59
2024-02-26T18:28:09.752Z,45.24
2024-02-26T18:30:09.819Z,45.49
2024-02-26T18:32:09.769Z,45.65
2024-02-26T18:34:09.816Z,45.78
2024-02-26T18:36:09.826Z,45.68
2024-02-26T18:40:09.792Z,45.16
2024-02-26T18:42:09.792Z,45.18
2024-02-26T18:45:09.884Z,45.15
2024-02-26T18:47:09.794Z,44.79
2024-02-26T18:49:09.856Z,44.97
2024-02-26T18:51:09.814Z,45.11
2024-02-26T18:53:09.811Z,45.23
2024-02-26T18:55:12.932Z,45.49
2024-02-26T18:57:09.934Z,45.58
2024-02-26T19:00:09.890Z,45.67
2024-02-26T19:02:09.811Z,46.00
2024-02-26T19:05:09.826Z,46.56
2024-02-26T19:07:09.861Z,46.55
2024-02-26T19:09:09.855Z,46.58
2024-02-26T19:11:10.217Z,47.32
2024-02-26T19:13:10.317Z,47.26
2024-02-26T19:15:09.921Z,47.19
2024-02-26T19:17:09.858Z,47.02
2024-02-26T19:21:09.906Z,46.33
2024-02-26T19:25:09.868Z,46.96
2024-02-26T19:27:09.955Z,46.75
2024-02-26T19:29:09.899Z,47.16
2024-02-26T19:31:09.881Z,47.22
2024-02-26T19:33:09.988Z,47.28
2024-02-26T19:36:09.960Z,47.50
2024-02-26T19:38:09.907Z,47.87
2024-02-26T19:40:09.939Z,47.55
2024-02-26T19:42:09.958Z,47.53
2024-02-26T19:44:09.917Z,47.66
2024-02-26T19:46:09.900Z,47.48
2024-02-26T19:48:10.050Z,47.52
2024-02-26T19:50:10.015Z,47.38
2024-02-26T19:52:09.966Z,47.57
2024-02-26T19:54:10.001Z,47.34
2024-02-26T19:56:09.951Z,47.73
2024-02-26T19:58:09.944Z,47.74
2024-02-26T20:00:10.043Z,47.86
2024-02-26T20:02:09.994Z,48.31
2024-02-26T20:04:10.019Z,48.42
2024-02-26T20:06:10.031Z,48.41
2024-02-26T20:08:10.013Z,48.15
2024-02-26T20:10:10.014Z,48.20
2024-02-26T20:12:10.035Z,48.26
2024-02-26T20:15:10.045Z,48.36
2024-02-26T20:17:10.028Z,48.17
2024-02-26T20:20:10.121Z,47.94
2024-02-26T20:23:10.065Z,48.04
2024-02-26T20:25:10.013Z,48.03
2024-02-26T20:27:10.032Z,48.20
2024-02-26T20:30:10.064Z,48.46
2024-02-26T20:32:10.018Z,48.32
2024-02-26T20:34:10.368Z,48.14
2024-02-26T20:36:10.124Z,48.45
2024-02-26T20:38:10.046Z,48.58
2024-02-26T20:41:10.095Z,48.58
2024-02-26T20:43:10.077Z,48.50
2024-02-26T20:45:10.101Z,48.36
2024-02-26T20:47:10.110Z,48.18
2024-02-26T20:49:10.222Z,48.18
2024-02-26T20:51:10.095Z,48.17
2024-02-26T20:53:13.731Z,48.24
2024-02-26T20:55:10.119Z,48.23
2024-02-26T20:57:10.161Z,48.45
2024-02-26T20:59:10.099Z,48.57
2024-02-26T21:01:10.093Z,48.63
2024-02-26T21:03:10.255Z,48.35
2024-02-26T21:05:10.672Z,49.08
2024-02-26T21:07:10.209Z,49.94
2024-02-26T21:09:10.236Z,50.21
2024-02-26T21:11:10.132Z,50.22
2024-02-26T21:13:10.149Z,49.55
2024-02-26T21:15:10.211Z,49.20
2024-02-26T21:17:10.148Z,49.08
2024-02-26T21:19:10.216Z,48.98
2024-02-26T21:21:10.212Z,48.87
2024-02-26T21:24:10.237Z,48.71
2024-02-26T21:26:10.220Z,48.71
2024-02-26T21:28:10.206Z,48.85
2024-02-26T21:30:10.239Z,49.05
2024-02-26T21:32:10.174Z,49.18
2024-02-26T21:34:10.275Z,49.16
2024-02-26T21:39:10.256Z,49.38
2024-02-26T21:42:10.228Z,49.42
2024-02-26T21:44:10.265Z,49.67
2024-02-26T21:46:10.252Z,49.91
2024-02-26T21:49:10.313Z,50.02
2024-02-26T21:51:10.289Z,49.84
2024-02-26T21:53:10.239Z,49.84
2024-02-26T21:55:10.238Z,49.92
2024-02-26T21:58:10.257Z,49.74
2024-02-26T22:00:15.215Z,49.96
2024-02-26T22:02:10.291Z,50.08
2024-02-26T22:04:10.515Z,50.11
2024-02-26T22:06:10.436Z,50.29
2024-02-26T22:09:10.347Z,49.93
2024-02-26T22:11:10.356Z,49.97
2024-02-26T22:13:10.278Z,50.10
2024-02-26T22:15:10.362Z,50.02
2024-02-26T22:17:10.320Z,50.04
2024-02-26T22:19:10.362Z,50.10
2024-02-26T22:21:10.318Z,50.37
2024-02-26T22:26:10.420Z,50.33
2024-02-26T22:28:10.315Z,50.24
2024-02-26T22:30:10.401Z,50.57
2024-02-26T22:32:10.372Z,50.57
2024-02-26T22:34:10.574Z,50.78
2024-02-26T22:36:10.386Z,51.03
2024-02-26T22:38:10.387Z,51.38
2024-02-26T22:40:10.390Z,51.36
2024-02-26T22:42:10.406Z,51.19
2024-02-26T22:44:10.352Z,51.15
2024-02-26T22:46:10.402Z,51.60
2024-02-26T22:48:10.550Z,51.67
2024-02-26T22:50:10.371Z,51.82
2024-02-26T22:53:10.422Z,52.05
2024-02-26T22:55:10.385Z,51.98
2024-02-26T22:57:10.418Z,51.79
2024-02-26T22:59:10.456Z,51.75
2024-02-26T23:01:10.480Z,51.71
2024-02-26T23:03:10.458Z,51.92
2024-02-26T23:05:10.404Z,51.85
2024-02-26T23:07:10.493Z,52.10
2024-02-26T23:09:10.504Z,52.16
2024-02-26T23:11:10.821Z,52.47
2024-02-26T23:13:10.425Z,52.55
2024-02-26T23:15:10.458Z,52.38
2024-02-26T23:17:10.457Z,52.19
2024-02-26T23:19:10.688Z,51.93
2024-02-26T23:21:10.541Z,52.01
2024-02-26T23:23:10.494Z,52.06
2024-02-26T23:25:10.457Z,51.98
2024-02-26T23:27:10.666Z,51.88
2024-02-26T23:29:10.492Z,52.00
2024-02-26T23:31:10.467Z,51.87
2024-02-26T23:33:10.642Z,51.61
2024-02-26T23:35:10.501Z,51.67
2024-02-26T23:37:10.532Z,51.62
2024-02-26T23:39:10.575Z,51.73
2024-02-26T23:43:10.579Z,51.89
2024-02-26T23:46:10.506Z,51.92
2024-02-26T23:48:11.363Z,51.93
2024-02-26T23:51:10.578Z,52.04
2024-02-26T23:58:10.548Z,51.91
